createdAt,value
2022-11-12T00:02:47.756Z,23.60
2022-11-12T00:06:03.971Z,29.20
2022-11-12T00:09:19.684Z,31.40
2022-11-12T00:12:35.940Z,25.40
2022-11-12T00:15:51.928Z,31.40
2022-11-12T00:19:08.056Z,26.20
2022-11-12T00:22:23.766Z,27.40
2022-11-12T00:25:38.890Z,30.20
2022-11-12T00:28:55.639Z,24.20
2022-11-12T00:32:11.184Z,23.60
2022-11-12T00:35:27.191Z,24.00
2022-11-12T00:38:42.785Z,19.40
2022-11-12T00:41:57.985Z,23.00
2022-11-12T00:45:13.887Z,20.80
2022-11-12T00:48:30.168Z,27.80
2022-11-12T00:51:45.894Z,25.20
2022-11-12T00:55:02.393Z,22.00
2022-11-12T00:58:18.058Z,25.20
2022-11-12T01:01:34.211Z,21.20
2022-11-12T01:04:49.954Z,20.60
2022-11-12T01:08:06.003Z,22.00
2022-11-12T01:11:25.242Z,23.40
2022-11-12T01:14:40.843Z,12.60
2022-11-12T01:17:56.935Z,20.80
2022-11-12T01:21:13.148Z,18.60
2022-11-12T01:24:29.138Z,19.80
2022-11-12T01:27:44.984Z,20.20
2022-11-12T01:31:13.952Z,17.00
2022-11-12T01:34:29.962Z,17.00
2022-11-12T01:37:45.949Z,21.20
2022-11-12T01:41:02.075Z,22.20
2022-11-12T01:44:22.965Z,20.40
2022-11-12T01:47:39.373Z,19.80
2022-11-12T01:50:54.830Z,22.40
2022-11-12T01:54:11.267Z,11.60
2022-11-12T01:57:34.586Z,16.60
2022-11-12T02:00:50.912Z,22.00
2022-11-12T02:04:06.688Z,22.40
2022-11-12T02:07:23.814Z,17.80
2022-11-12T02:10:39.443Z,15.20
2022-11-12T02:13:57.971Z,17.20
2022-11-12T02:17:14.175Z,15.80
2022-11-12T02:20:33.777Z,22.40
2022-11-12T02:24:01.383Z,20.00
2022-11-12T02:27:17.177Z,18.40
2022-11-12T02:30:41.054Z,20.40
2022-11-12T02:33:56.990Z,21.40
2022-11-12T02:37:13.074Z,20.80
2022-11-12T02:40:28.874Z,22.00
2022-11-12T02:43:45.028Z,19.60
2022-11-12T02:47:00.875Z,22.60
2022-11-12T02:50:17.502Z,16.60
2022-11-12T02:53:33.213Z,19.00
2022-11-12T02:56:48.874Z,19.00
2022-11-12T03:00:09.103Z,17.40
2022-11-12T03:03:25.110Z,19.80
2022-11-12T03:06:40.960Z,18.00
2022-11-12T03:09:57.074Z,16.60
2022-11-12T03:13:13.006Z,18.20
2022-11-12T03:16:28.818Z,15.60
2022-11-12T03:19:45.101Z,15.80
2022-11-12T03:23:03.119Z,19.80
2022-11-12T03:26:19.245Z,20.60
2022-11-12T03:29:35.240Z,19.80
2022-11-12T03:32:51.063Z,19.00
2022-11-12T03:36:06.338Z,22.60
2022-11-12T03:39:22.164Z,19.80
2022-11-12T03:42:38.076Z,22.00
2022-11-12T03:45:54.165Z,14.80
2022-11-12T03:49:10.051Z,19.20
2022-11-12T03:52:25.057Z,18.20
2022-11-12T03:55:40.937Z,16.00
2022-11-12T03:58:57.090Z,14.60
2022-11-12T04:02:14.542Z,16.20
2022-11-12T04:06:02.073Z,16.80
2022-11-12T04:09:17.242Z,23.60
2022-11-12T04:12:51.431Z,17.20
2022-11-12T04:16:34.590Z,23.20
2022-11-12T04:20:08.802Z,19.80
2022-11-12T04:23:23.893Z,14.00
2022-11-12T04:26:39.940Z,24.20
2022-11-12T04:30:14.862Z,20.20
2022-11-12T04:33:30.151Z,19.00
2022-11-12T04:36:45.952Z,17.00
2022-11-12T04:40:21.943Z,18.60
2022-11-12T04:43:55.536Z,20.40
2022-11-12T04:47:11.016Z,17.60
2022-11-12T04:50:27.044Z,21.80
2022-11-12T04:53:43.150Z,11.80
2022-11-12T04:56:59.251Z,21.40
2022-11-12T05:00:15.601Z,16.60
2022-11-12T05:03:31.328Z,20.00
2022-11-12T05:06:52.964Z,20.20
2022-11-12T05:10:08.716Z,18.00
2022-11-12T05:13:24.349Z,20.60
2022-11-12T05:16:40.280Z,16.20
2022-11-12T05:19:56.094Z,16.80
2022-11-12T05:23:11.230Z,19.20
2022-11-12T05:26:27.197Z,26.00
2022-11-12T05:29:43.168Z,19.20
2022-11-12T05:32:59.143Z,18.00
2022-11-12T05:36:15.141Z,20.00
2022-11-12T05:39:31.033Z,21.80
2022-11-12T05:42:46.920Z,26.60
2022-11-12T05:46:03.456Z,18.00
2022-11-12T05:49:19.399Z,27.00
2022-11-12T05:52:35.400Z,21.20
2022-11-12T05:55:51.325Z,32.40
2022-11-12T05:59:08.604Z,33.60
2022-11-12T06:02:25.143Z,27.60
2022-11-12T06:05:40.410Z,28.80
2022-11-12T06:08:56.270Z,29.80
2022-11-12T06:12:12.108Z,28.00
2022-11-12T06:15:28.006Z,24.75
2022-11-12T06:18:43.148Z,34.25
2022-11-12T06:21:59.246Z,29.50
2022-11-12T06:25:15.195Z,22.50
2022-11-12T06:28:31.075Z,28.00
2022-11-12T06:31:46.211Z,27.00
2022-11-12T06:35:02.294Z,19.50
2022-11-12T06:38:18.208Z,25.50
2022-11-12T06:41:34.574Z,22.75
2022-11-12T06:44:50.230Z,26.25
2022-11-12T06:48:06.405Z,26.25
2022-11-12T06:51:22.308Z,24.50
2022-11-12T06:54:38.307Z,21.25
2022-11-12T06:57:54.134Z,28.50
2022-11-12T07:01:14.419Z,22.50
2022-11-12T07:04:30.355Z,28.25
2022-11-12T07:07:46.325Z,23.75
2022-11-12T07:11:02.212Z,26.25
2022-11-12T07:14:18.077Z,29.25
2022-11-12T07:17:33.188Z,30.75
2022-11-12T07:20:48.992Z,23.20
2022-11-12T07:24:05.336Z,27.00
2022-11-12T07:27:21.225Z,27.00
2022-11-12T07:30:36.392Z,20.00
2022-11-12T07:33:52.340Z,40.50
2022-11-12T07:37:08.377Z,33.50
2022-11-12T07:40:24.442Z,53.00
2022-11-12T07:43:41.223Z,46.50
2022-11-12T07:46:57.488Z,45.75
2022-11-12T07:50:13.157Z,41.25
2022-11-12T07:53:28.488Z,39.25
2022-11-12T07:56:44.081Z,40.75
2022-11-12T07:59:59.241Z,38.50
2022-11-12T08:03:15.035Z,36.00
2022-11-12T08:06:30.817Z,36.75
2022-11-12T08:09:46.281Z,41.00
2022-11-12T08:13:01.453Z,26.00
2022-11-12T08:16:17.435Z,29.60
2022-11-12T08:19:33.350Z,21.20
2022-11-12T08:22:49.711Z,24.00
2022-11-12T08:26:06.498Z,27.40
2022-11-12T08:29:25.406Z,23.20
2022-11-12T08:32:41.430Z,26.40
2022-11-12T08:35:57.706Z,26.20
2022-11-12T08:39:13.272Z,21.20
2022-11-12T08:42:28.529Z,22.20
2022-11-12T08:45:44.431Z,21.00
2022-11-12T08:49:00.399Z,18.00
2022-11-12T08:52:16.489Z,21.60
2022-11-12T08:55:33.464Z,22.20
2022-11-12T08:58:49.221Z,22.40
2022-11-12T09:02:06.749Z,21.80
2022-11-12T09:05:22.491Z,20.00
2022-11-12T09:08:39.839Z,21.20
2022-11-12T09:11:55.358Z,18.60
2022-11-12T09:18:46.167Z,21.20
2022-11-12T09:22:02.162Z,24.20
2022-11-12T09:25:17.143Z,23.60
2022-11-12T09:28:32.641Z,20.60
2022-11-12T09:31:48.326Z,21.20
2022-11-12T09:35:03.470Z,22.60
2022-11-12T09:38:19.326Z,22.80
2022-11-12T09:41:36.831Z,25.40
2022-11-12T09:45:27.565Z,23.00
2022-11-12T09:48:46.182Z,25.00
2022-11-12T09:52:21.767Z,21.60
2022-11-12T09:55:40.430Z,19.40
2022-11-12T09:58:56.724Z,21.20
2022-11-12T10:02:36.209Z,20.00
2022-11-12T10:05:56.166Z,21.00
2022-11-12T10:09:16.777Z,15.80
2022-11-12T10:12:38.916Z,27.80
2022-11-12T10:16:15.837Z,39.60
2022-11-12T10:19:50.129Z,25.80
2022-11-12T10:23:25.185Z,26.00
2022-11-12T10:26:41.605Z,17.20
2022-11-12T10:29:59.682Z,15.40
2022-11-12T10:33:15.512Z,19.80
2022-11-12T10:36:33.707Z,24.20
2022-11-12T10:39:49.378Z,28.80
2022-11-12T10:43:17.219Z,20.60
2022-11-12T10:46:35.910Z,26.20
2022-11-12T10:50:09.537Z,21.40
2022-11-12T10:53:39.672Z,21.00
2022-11-12T10:56:55.915Z,18.20
2022-11-12T11:00:14.725Z,20.60
2022-11-12T11:03:37.717Z,25.20
2022-11-12T11:07:24.562Z,28.20
2022-11-12T11:10:40.630Z,24.40
2022-11-12T11:13:57.995Z,21.00
2022-11-12T11:17:17.727Z,24.00
2022-11-12T11:20:39.254Z,25.40
2022-11-12T11:24:12.703Z,23.80
2022-11-12T11:27:51.132Z,23.00
2022-11-12T11:31:26.575Z,18.60
2022-11-12T11:35:04.696Z,22.20
2022-11-12T11:38:32.576Z,17.80
2022-11-12T11:42:21.099Z,18.00
2022-11-12T11:45:48.344Z,18.00
2022-11-12T11:49:06.341Z,17.40
2022-11-12T11:52:24.273Z,17.20
2022-11-12T11:55:54.412Z,33.20
2022-11-12T11:59:22.339Z,26.80
2022-11-12T12:03:15.368Z,21.40
2022-11-12T12:06:34.465Z,24.60
2022-11-12T12:09:56.260Z,21.80
2022-11-12T12:13:44.007Z,20.80
2022-11-12T12:17:16.065Z,19.20
2022-11-12T12:20:42.821Z,22.80
2022-11-12T12:24:02.727Z,23.80
2022-11-12T12:27:23.054Z,30.00
2022-11-12T12:30:41.484Z,24.40
2022-11-12T12:34:01.121Z,24.00
2022-11-12T12:37:36.069Z,27.60
2022-11-12T12:41:07.007Z,28.60
2022-11-12T12:44:42.686Z,27.80
2022-11-12T12:47:58.972Z,29.80
2022-11-12T12:51:14.278Z,27.00
2022-11-12T12:54:42.708Z,25.80
2022-11-12T12:58:01.272Z,30.00
2022-11-12T13:01:22.991Z,31.80
2022-11-12T13:04:57.044Z,29.40
2022-11-12T13:08:21.116Z,28.60
2022-11-12T13:12:05.458Z,24.20
2022-11-12T13:15:21.121Z,24.20
2022-11-12T13:18:42.133Z,31.20
2022-11-12T13:22:19.479Z,29.80
2022-11-12T13:25:34.986Z,26.00
2022-11-12T13:29:21.755Z,32.40
2022-11-12T13:32:46.242Z,32.60
2022-11-12T13:36:18.036Z,28.60
2022-11-12T13:39:35.314Z,25.80
2022-11-12T13:42:52.267Z,25.40
2022-11-12T13:46:11.555Z,27.00
2022-11-12T13:49:27.647Z,27.60
2022-11-12T13:52:43.590Z,30.60
2022-11-12T13:55:59.788Z,28.40
2022-11-12T13:59:15.655Z,32.60
2022-11-12T14:02:31.516Z,29.00
2022-11-12T14:05:48.749Z,30.80
2022-11-12T14:09:22.802Z,32.60
2022-11-12T14:13:09.985Z,25.20
2022-11-12T14:16:40.995Z,28.20
2022-11-12T14:20:08.787Z,26.00
2022-11-12T14:23:25.425Z,26.60
2022-11-12T14:26:42.574Z,26.00
2022-11-12T14:30:10.622Z,30.60
2022-11-12T14:33:27.891Z,23.40
2022-11-12T14:36:43.540Z,28.20
2022-11-12T14:39:59.408Z,29.80
2022-11-12T14:43:36.539Z,25.20
2022-11-12T14:46:55.184Z,35.80
2022-11-12T14:50:22.135Z,25.80
2022-11-12T14:53:40.442Z,29.20
2022-11-12T14:56:55.595Z,28.00
2022-11-12T15:00:25.281Z,30.40
2022-11-12T15:03:40.688Z,31.60
2022-11-12T15:06:57.771Z,33.80
2022-11-12T15:10:36.018Z,30.40
2022-11-12T15:13:52.650Z,35.20
2022-11-12T15:17:34.631Z,38.20
2022-11-12T15:21:12.091Z,46.80
2022-11-12T15:24:33.251Z,42.00
2022-11-12T15:27:49.116Z,48.20
2022-11-12T15:31:23.145Z,55.00
2022-11-12T15:34:42.094Z,56.20
2022-11-12T15:37:57.608Z,59.00
2022-11-12T15:41:23.212Z,57.20
2022-11-12T15:44:38.623Z,41.80
2022-11-12T15:47:54.662Z,40.20
2022-11-12T15:51:10.989Z,36.20
2022-11-12T15:54:26.757Z,25.20
2022-11-12T15:57:52.184Z,42.20
2022-11-12T16:01:07.913Z,28.60
2022-11-12T16:04:23.614Z,32.60
2022-11-12T16:07:39.714Z,28.00
2022-11-12T16:10:55.514Z,32.00
2022-11-12T16:14:13.148Z,43.60
2022-11-12T16:17:28.459Z,42.40
2022-11-12T16:20:44.740Z,45.60
2022-11-12T16:24:00.634Z,36.60
2022-11-12T16:27:17.454Z,32.60
2022-11-12T16:30:34.081Z,32.80
2022-11-12T16:33:49.701Z,32.60
2022-11-12T16:37:05.738Z,32.20
2022-11-12T16:40:23.602Z,36.20
2022-11-12T16:43:39.182Z,36.80
2022-11-12T16:46:55.678Z,28.80
2022-11-12T16:50:12.589Z,29.80
2022-11-12T16:53:27.887Z,34.00
2022-11-12T16:56:43.893Z,35.40
2022-11-12T16:59:59.690Z,34.00
2022-11-12T17:03:16.039Z,31.80
2022-11-12T17:06:34.089Z,43.40
2022-11-12T17:09:51.479Z,44.60
2022-11-12T17:13:12.213Z,41.60
2022-11-12T17:16:28.305Z,83.00
2022-11-12T17:19:43.578Z,80.50
2022-11-12T17:22:59.954Z,63.60
2022-11-12T17:26:19.575Z,79.50
2022-11-12T17:29:36.162Z,60.40
2022-11-12T17:32:51.826Z,37.60
2022-11-12T17:36:08.717Z,41.40
2022-11-12T17:39:23.964Z,47.00
2022-11-12T17:42:39.627Z,59.40
2022-11-12T17:45:55.402Z,52.00
2022-11-12T17:49:10.391Z,68.20
2022-11-12T17:52:25.741Z,69.00
2022-11-12T17:55:41.676Z,63.40
2022-11-12T17:58:57.770Z,71.50
2022-11-12T18:02:13.975Z,58.60
2022-11-12T18:05:30.578Z,55.40
2022-11-12T18:08:45.961Z,58.00
2022-11-12T18:12:01.810Z,59.60
2022-11-12T18:15:17.865Z,53.60
2022-11-12T18:18:33.654Z,46.00
2022-11-12T18:21:49.632Z,51.80
2022-11-12T18:25:06.435Z,51.80
2022-11-12T18:28:21.657Z,43.20
2022-11-12T18:31:36.941Z,46.00
2022-11-12T18:34:52.837Z,54.80
2022-11-12T18:38:08.630Z,34.80
2022-11-12T18:41:26.705Z,41.80
2022-11-12T18:44:42.959Z,45.60
2022-11-12T18:47:58.722Z,42.40
2022-11-12T18:51:15.909Z,40.20
2022-11-12T18:54:31.887Z,28.80
2022-11-12T18:57:47.816Z,40.20
2022-11-12T19:01:07.445Z,37.60
2022-11-12T19:04:22.733Z,46.60
2022-11-12T19:07:39.186Z,62.80
2022-11-12T19:11:02.564Z,76.00
2022-11-12T19:14:18.713Z,57.75
2022-11-12T19:17:33.783Z,59.75
2022-11-12T19:20:49.787Z,64.00
2022-11-12T19:24:06.348Z,47.50
2022-11-12T19:27:21.850Z,62.20
2022-11-12T19:30:37.687Z,50.20
2022-11-12T19:33:53.897Z,47.60
2022-11-12T19:37:32.281Z,44.40
2022-11-12T19:40:45.707Z,52.80
2022-11-12T19:44:00.833Z,51.00
2022-11-12T19:47:16.757Z,41.20
2022-11-12T19:50:34.641Z,45.40
2022-11-12T19:53:51.000Z,45.80
2022-11-12T19:57:06.844Z,48.00
2022-11-12T20:00:22.744Z,42.80
2022-11-12T20:03:38.858Z,47.40
2022-11-12T20:06:55.091Z,39.80
2022-11-12T20:10:10.735Z,45.80
2022-11-12T20:13:26.756Z,43.00
2022-11-12T20:16:42.765Z,48.80
2022-11-12T20:19:57.893Z,55.00
2022-11-12T20:23:14.019Z,49.80
2022-11-12T20:26:29.889Z,53.20
2022-11-12T20:29:46.005Z,54.60
2022-11-12T20:33:01.959Z,47.80
2022-11-12T20:36:20.070Z,51.60
2022-11-12T20:39:36.230Z,69.00
2022-11-12T20:42:52.060Z,46.75
2022-11-12T20:46:07.844Z,63.00
2022-11-12T20:49:23.844Z,62.50
2022-11-12T20:52:38.857Z,62.50
2022-11-12T20:55:54.931Z,64.00
2022-11-12T20:59:11.082Z,66.50
2022-11-12T21:02:27.221Z,62.50
2022-11-12T21:05:43.213Z,60.00
2022-11-12T21:08:59.898Z,55.25
2022-11-12T21:12:16.132Z,60.50
2022-11-12T21:15:31.696Z,59.25
2022-11-12T21:18:47.988Z,59.25
2022-11-12T21:22:03.922Z,61.75
2022-11-12T21:25:19.985Z,59.75
2022-11-12T21:28:38.285Z,53.25
2022-11-12T21:31:53.874Z,63.50
2022-11-12T21:35:10.040Z,57.25
2022-11-12T21:38:29.931Z,56.00
2022-11-12T21:41:45.713Z,58.00
2022-11-12T21:45:01.056Z,61.00
2022-11-12T21:48:17.092Z,64.25
2022-11-12T21:51:32.935Z,55.00
2022-11-12T21:54:49.149Z,61.00
2022-11-12T21:58:05.070Z,63.00
2022-11-12T22:01:23.002Z,69.75
2022-11-12T22:04:39.203Z,70.00
2022-11-12T22:07:55.095Z,66.25
2022-11-12T22:11:15.475Z,73.75
2022-11-12T22:14:30.807Z,76.00
2022-11-12T22:17:46.207Z,72.00
2022-11-12T22:21:04.111Z,81.75
2022-11-12T22:24:20.139Z,78.75
2022-11-12T22:27:36.081Z,75.25
2022-11-12T22:30:52.259Z,81.50
2022-11-12T22:34:09.063Z,74.50
2022-11-12T22:37:25.115Z,74.25
2022-11-12T22:40:40.963Z,64.50
2022-11-12T22:44:00.923Z,66.00
2022-11-12T22:47:17.119Z,46.25
2022-11-12T22:50:33.295Z,47.80
2022-11-12T22:53:53.165Z,40.00
2022-11-12T22:57:08.910Z,45.60
2022-11-12T23:00:31.018Z,39.60
2022-11-12T23:03:47.517Z,43.60
2022-11-12T23:07:03.025Z,48.60
2022-11-12T23:10:19.460Z,41.80
2022-11-12T23:13:35.179Z,40.20
2022-11-12T23:16:51.069Z,44.60
2022-11-12T23:20:07.300Z,41.20
2022-11-12T23:23:22.842Z,44.00
2022-11-12T23:26:38.138Z,59.40
2022-11-12T23:29:54.239Z,52.00
2022-11-12T23:33:10.007Z,54.80
2022-11-12T23:36:26.457Z,42.20
2022-11-12T23:39:41.645Z,44.40
2022-11-12T23:42:58.383Z,41.60
2022-11-12T23:46:14.077Z,44.40
2022-11-12T23:49:30.008Z,43.20
2022-11-12T23:52:46.387Z,40.60
2022-11-12T23:56:02.120Z,40.00
2022-11-12T23:59:18.475Z,45.00
